Time;durP1;ratioP1;P1;durP2;ratioP2;P2;SDS_P1;SDS_P2;PMS_P1;PMS_P2;Temp;Humidity;BMP_temperature;BMP_pressure;BME280_temperature;BME280_humidity;BME280_pressure;Samples;Min_cycle;Max_cycle;Signal;HPM_P1;HPM_P2
2022/04/15 00:02:05;;;;;;;15.60;6.50;;;10.20;99.90;;;;;;4997548;28;20041;-68
2022/04/15 00:04:31;;;;;;;16.15;6.35;;;10.10;99.90;;;;;;5005380;28;20036;-72
2022/04/15 00:06:57;;;;;;;18.55;6.45;;;10.20;99.90;;;;;;4998948;28;20646;-68
2022/04/15 00:09:23;;;;;;;18.13;7.03;;;10.10;99.90;;;;;;5007924;28;20057;-68
2022/04/15 00:11:48;;;;;;;22.88;6.45;;;10.10;99.90;;;;;;5003964;28;20084;-68
2022/04/15 00:14:14;;;;;;;22.85;7.50;;;10.10;99.90;;;;;;5000560;28;20034;-68
2022/04/15 00:16:43;;;;;;;12.05;6.03;;;10.10;99.90;;;;;;5001834;28;20121;-69
2022/04/15 00:19:10;;;;;;;18.77;7.35;;;10.10;99.90;;;;;;5002461;28;20558;-68
2022/04/15 00:21:36;;;;;;;14.82;7.03;;;10.10;99.90;;;;;;5003983;28;20029;-73
2022/04/15 00:24:01;;;;;;;14.13;6.57;;;10.10;99.90;;;;;;5002390;28;20046;-68
2022/04/15 00:26:27;;;;;;;21.05;6.50;;;10.10;99.90;;;;;;4998724;28;20041;-68
2022/04/15 00:28:52;;;;;;;14.82;6.38;;;10.00;99.90;;;;;;5000279;28;20039;-73
2022/04/15 00:31:19;;;;;;;15.32;6.82;;;10.00;99.90;;;;;;5004305;28;20041;-70
2022/04/15 00:33:45;;;;;;;20.77;6.90;;;10.00;99.90;;;;;;4997083;28;20041;-71
2022/04/15 00:36:10;;;;;;;15.23;6.88;;;10.10;99.90;;;;;;5002674;28;20121;-72
2022/04/15 00:38:36;;;;;;;13.35;5.80;;;10.00;99.90;;;;;;5003022;28;20037;-68
2022/04/15 00:41:01;;;;;;;19.05;6.57;;;10.00;99.90;;;;;;4997360;28;20413;-68
2022/04/15 00:43:27;;;;;;;16.50;6.07;;;10.00;99.90;;;;;;5003684;28;20410;-71
2022/04/15 00:45:53;;;;;;;13.82;6.95;;;10.10;99.90;;;;;;4999379;28;20557;-68
2022/04/15 00:48:19;;;;;;;14.18;5.93;;;10.10;99.90;;;;;;5000123;28;20038;-68
2022/04/15 00:50:45;;;;;;;14.23;5.88;;;10.10;99.90;;;;;;4999839;28;20041;-70
2022/04/15 00:53:12;;;;;;;15.43;6.95;;;10.10;99.90;;;;;;5000961;28;20042;-71
2022/04/15 00:55:40;;;;;;;17.83;6.88;;;10.00;99.90;;;;;;4995499;28;20042;-68
2022/04/15 00:58:06;;;;;;;23.33;7.20;;;10.00;99.90;;;;;;5007337;28;20029;-72
2022/04/15 01:00:36;;;;;;;21.60;6.43;;;10.00;99.90;;;;;;5002006;28;20053;-68
2022/04/15 01:03:04;;;;;;;14.02;6.30;;;10.00;99.90;;;;;;5001615;28;20042;-68
2022/04/15 01:05:30;;;;;;;15.52;6.03;;;9.90;99.90;;;;;;5006788;28;20966;-73
2022/04/15 01:07:57;;;;;;;12.57;5.38;;;9.90;99.90;;;;;;5002343;28;20042;-69
2022/04/15 01:13:59;;;;;;;14.63;6.15;;;9.90;99.90;;;;;;4959621;28;20923;-72
2022/04/15 01:16:26;;;;;;;18.20;7.30;;;9.90;99.90;;;;;;4994865;28;20034;-68
2022/04/15 01:18:51;;;;;;;10.48;5.47;;;9.80;99.90;;;;;;5003191;28;20034;-68
2022/04/15 01:21:18;;;;;;;10.60;4.95;;;9.90;99.90;;;;;;5001354;28;20053;-68
2022/04/15 01:23:43;;;;;;;10.00;4.78;;;9.80;99.90;;;;;;5005531;28;20092;-68
2022/04/15 01:26:09;;;;;;;15.30;5.70;;;9.90;99.90;;;;;;5001987;28;20414;-69
2022/04/15 01:28:34;;;;;;;8.45;4.13;;;9.80;99.90;;;;;;5000574;28;20077;-69
2022/04/15 01:31:00;;;;;;;13.95;5.55;;;9.80;99.90;;;;;;5002011;28;20076;-68
2022/04/15 01:33:25;;;;;;;9.63;4.70;;;9.80;99.90;;;;;;4999125;28;20041;-70
2022/04/15 01:35:51;;;;;;;12.60;4.70;;;9.80;99.90;;;;;;4993186;28;20384;-68
2022/04/15 01:38:17;;;;;;;12.68;4.82;;;9.80;99.90;;;;;;5001459;28;20064;-71
2022/04/15 01:40:46;;;;;;;13.95;4.60;;;9.70;99.90;;;;;;5001588;28;20038;-71
2022/04/15 01:43:12;;;;;;;10.85;4.30;;;9.70;99.90;;;;;;4992061;28;20128;-68
2022/04/15 01:45:38;;;;;;;11.30;4.65;;;9.80;99.90;;;;;;5001980;28;20045;-68
2022/04/15 01:48:04;;;;;;;9.35;5.20;;;9.70;99.90;;;;;;5000212;28;20506;-71
2022/04/15 01:50:29;;;;;;;10.63;5.20;;;9.70;99.90;;;;;;5005450;28;20037;-68
2022/04/15 01:52:56;;;;;;;12.02;4.05;;;9.70;99.90;;;;;;5001065;28;20038;-68
2022/04/15 01:55:22;;;;;;;9.07;4.47;;;9.80;99.90;;;;;;4998532;28;20041;-68
2022/04/15 01:57:47;;;;;;;8.75;4.20;;;9.80;99.90;;;;;;4999242;28;20050;-72
2022/04/15 02:00:13;;;;;;;8.35;3.70;;;9.80;99.90;;;;;;4999600;28;20477;-68
2022/04/15 02:02:39;;;;;;;8.75;4.10;;;9.80;99.90;;;;;;4998352;28;20038;-68
2022/04/15 02:05:05;;;;;;;9.02;3.97;;;9.80;99.90;;;;;;5001939;28;20038;-70
2022/04/15 02:07:31;;;;;;;8.80;4.10;;;9.80;99.90;;;;;;5006490;28;20049;-70
2022/04/15 02:09:56;;;;;;;6.00;3.00;;;9.80;99.90;;;;;;4999168;28;20120;-68
2022/04/15 02:12:22;;;;;;;6.20;3.20;;;9.80;99.90;;;;;;4997922;28;20094;-70
2022/04/15 02:14:47;;;;;;;7.95;3.45;;;9.80;99.90;;;;;;5006201;28;20038;-71
2022/04/15 02:17:13;;;;;;;7.85;3.25;;;9.80;99.90;;;;;;4999840;28;20442;-68
2022/04/15 02:19:39;;;;;;;5.50;3.28;;;9.80;99.90;;;;;;5007331;28;20034;-67
2022/04/15 02:22:04;;;;;;;8.52;3.45;;;9.80;99.90;;;;;;5002483;28;20030;-68
2022/04/15 02:24:30;;;;;;;11.38;3.63;;;9.80;99.90;;;;;;5001409;28;20034;-70
2022/04/15 02:26:55;;;;;;;5.90;3.00;;;9.70;99.90;;;;;;5000245;28;20085;-70
2022/04/15 02:29:21;;;;;;;7.28;3.03;;;9.70;99.90;;;;;;5002527;28;20037;-68
2022/04/15 02:31:46;;;;;;;12.23;3.78;;;9.70;99.90;;;;;;5002478;28;20114;-69
2022/04/15 02:34:12;;;;;;;8.68;3.17;;;9.80;99.90;;;;;;5001837;28;20030;-70
2022/04/15 02:36:37;;;;;;;7.03;2.78;;;9.70;99.90;;;;;;4998887;28;20038;-68
2022/04/15 02:39:10;;;;;;;10.07;2.90;;;9.70;99.90;;;;;;4993948;28;20025;-68
2022/04/15 02:41:36;;;;;;;9.85;3.05;;;9.70;99.90;;;;;;5001848;28;20050;-68
2022/04/15 02:44:02;;;;;;;7.07;3.30;;;9.80;99.90;;;;;;5000632;28;20058;-68
2022/04/15 02:46:27;;;;;;;6.15;2.50;;;9.80;99.90;;;;;;5007419;28;20053;-68
2022/04/15 02:48:53;;;;;;;6.80;3.13;;;9.80;99.90;;;;;;4999314;28;20034;-72
2022/04/15 02:51:19;;;;;;;8.27;2.50;;;9.90;99.90;;;;;;4997405;28;20068;-69
2022/04/15 02:53:44;;;;;;;6.97;2.42;;;9.90;99.90;;;;;;4996926;28;20395;-70
2022/04/15 02:56:10;;;;;;;5.93;2.47;;;9.90;99.90;;;;;;5002539;28;20172;-70
2022/04/15 02:58:35;;;;;;;7.10;2.38;;;9.80;99.90;;;;;;5000842;28;20041;-70
2022/04/15 03:01:02;;;;;;;5.30;2.22;;;9.80;99.90;;;;;;5007839;23;20827;-65
2022/04/15 03:03:28;;;;;;;4.43;2.10;;;9.90;99.90;;;;;;4983152;28;20039;-67
2022/04/15 03:05:56;;;;;;;7.05;2.10;;;9.80;99.90;;;;;;4975805;28;20121;-66
2022/04/15 03:08:21;;;;;;;9.65;2.58;;;9.80;99.90;;;;;;4981707;28;20042;-66
2022/04/15 03:10:47;;;;;;;5.57;2.10;;;9.80;99.90;;;;;;4980185;28;20062;-66
2022/04/15 03:13:13;;;;;;;7.68;2.67;;;9.80;99.90;;;;;;4976734;28;20038;-66
2022/04/15 03:15:38;;;;;;;5.60;2.65;;;9.80;99.90;;;;;;4981592;28;20493;-66
2022/04/15 03:18:04;;;;;;;5.50;2.40;;;9.70;99.90;;;;;;4977785;28;20494;-64
2022/04/15 03:20:29;;;;;;;4.38;1.92;;;9.80;99.90;;;;;;4979559;28;20042;-66
2022/04/15 03:22:55;;;;;;;12.20;3.00;;;9.80;99.90;;;;;;4978994;28;20037;-65
2022/04/15 03:25:20;;;;;;;7.35;2.92;;;9.80;99.90;;;;;;4979597;28;20109;-65
2022/04/15 03:27:47;;;;;;;8.68;2.40;;;9.90;99.90;;;;;;4979810;28;20121;-64
2022/04/15 03:30:14;;;;;;;7.35;2.55;;;9.90;99.90;;;;;;4978118;28;20494;-65
2022/04/15 03:32:50;;;;;;;7.15;3.15;;;9.90;99.90;;;;;;4981252;28;20045;-65
2022/04/15 03:35:20;;;;;;;10.98;3.35;;;9.90;99.90;;;;;;4978671;28;20035;-66
2022/04/15 03:37:49;;;;;;;8.90;2.80;;;9.90;99.90;;;;;;4978862;28;20041;-68
2022/04/15 03:40:16;;;;;;;4.90;3.05;;;9.90;99.90;;;;;;4978340;28;20595;-65
2022/04/15 03:42:47;;;;;;;11.18;2.58;;;9.90;99.90;;;;;;4980484;28;20035;-63
2022/04/15 03:45:18;;;;;;;5.25;2.00;;;9.90;99.90;;;;;;4981021;28;20030;-65
2022/04/15 03:47:44;;;;;;;5.60;1.83;;;9.90;99.90;;;;;;4978403;28;20085;-65
2022/04/15 03:50:10;;;;;;;5.05;2.95;;;9.90;99.90;;;;;;4981239;28;20038;-65
2022/04/15 03:52:42;;;;;;;6.75;1.95;;;9.80;99.90;;;;;;4977395;28;20054;-68
2022/04/15 03:55:12;;;;;;;5.05;1.73;;;9.80;99.90;;;;;;4973160;28;20031;-66
2022/04/15 03:57:38;;;;;;;4.05;1.75;;;9.80;99.90;;;;;;4981376;28;20044;-67
2022/04/15 04:00:09;;;;;;;7.00;2.10;;;9.80;99.90;;;;;;4977324;28;20035;-62
2022/04/15 04:02:36;;;;;;;5.55;2.10;;;9.80;99.90;;;;;;4976569;28;20399;-65
2022/04/15 04:05:01;;;;;;;4.68;1.85;;;9.80;99.90;;;;;;4984464;28;20458;-64
2022/04/15 04:07:27;;;;;;;4.65;1.77;;;9.70;99.90;;;;;;4981906;28;20042;-65
2022/04/15 04:09:53;;;;;;;9.35;2.53;;;9.70;99.90;;;;;;4983118;28;20031;-66
2022/04/15 04:12:19;;;;;;;3.83;1.55;;;9.70;99.90;;;;;;4982729;28;20042;-62
2022/04/15 04:14:44;;;;;;;4.47;1.77;;;9.70;99.90;;;;;;4981802;28;20023;-66
2022/04/15 04:17:10;;;;;;;4.60;1.50;;;9.70;99.90;;;;;;4982398;28;20042;-62
2022/04/15 04:19:36;;;;;;;4.32;1.83;;;9.80;99.90;;;;;;4979636;28;20043;-65
2022/04/15 04:22:02;;;;;;;3.83;1.70;;;9.80;99.90;;;;;;4976872;28;20031;-65
2022/04/15 04:24:28;;;;;;;4.43;1.42;;;9.80;99.90;;;;;;4982276;28;20041;-65
2022/04/15 04:26:54;;;;;;;3.25;1.73;;;9.70;99.90;;;;;;4982609;28;20031;-65
2022/04/15 04:29:19;;;;;;;3.83;1.77;;;9.60;99.90;;;;;;4984479;28;20039;-65
2022/04/15 04:31:45;;;;;;;6.03;2.13;;;9.60;99.90;;;;;;4982423;28;20030;-66
2022/04/15 04:34:10;;;;;;;4.93;1.63;;;9.70;99.90;;;;;;4981292;28;20124;-64
2022/04/15 04:36:36;;;;;;;4.63;2.40;;;9.70;99.90;;;;;;4984172;28;20073;-64
2022/04/15 04:39:02;;;;;;;4.68;1.98;;;9.60;99.90;;;;;;4980787;28;20030;-65
2022/04/15 04:41:27;;;;;;;5.03;2.10;;;9.60;99.90;;;;;;4983635;28;20038;-65
2022/04/15 04:43:53;;;;;;;6.03;2.15;;;9.60;99.90;;;;;;4978979;28;20162;-67
2022/04/15 04:46:19;;;;;;;4.72;1.80;;;9.50;99.90;;;;;;4980360;28;20502;-66
2022/04/15 04:48:44;;;;;;;3.80;1.83;;;9.60;99.90;;;;;;4981485;28;20046;-64
2022/04/15 04:51:10;;;;;;;6.07;1.65;;;9.50;99.90;;;;;;4979902;28;20031;-65
2022/04/15 04:53:35;;;;;;;5.10;1.70;;;9.60;99.90;;;;;;4983458;28;20084;-66
2022/04/15 04:56:01;;;;;;;3.85;1.60;;;9.50;99.90;;;;;;4980421;28;20057;-65
2022/04/15 04:58:26;;;;;;;9.73;2.30;;;9.50;99.90;;;;;;4983577;28;20042;-65
2022/04/15 05:00:52;;;;;;;6.50;1.75;;;9.50;99.90;;;;;;4977385;28;20039;-68
2022/04/15 05:03:17;;;;;;;11.23;1.60;;;9.50;99.90;;;;;;4977689;28;20042;-67
2022/04/15 05:05:43;;;;;;;5.63;1.38;;;9.60;99.90;;;;;;4979038;28;20126;-64
2022/04/15 05:08:08;;;;;;;4.97;1.50;;;9.60;99.90;;;;;;4971363;28;20070;-66
2022/04/15 05:10:34;;;;;;;4.88;1.50;;;9.60;99.90;;;;;;4973133;28;20031;-66
2022/04/15 05:12:59;;;;;;;3.08;1.50;;;9.50;99.90;;;;;;4970496;28;20105;-63
2022/04/15 05:15:25;;;;;;;6.18;1.40;;;9.50;99.90;;;;;;4973240;28;20098;-65
2022/04/15 05:17:51;;;;;;;2.20;1.10;;;9.60;99.90;;;;;;4972812;28;20491;-65
2022/04/15 05:20:16;;;;;;;4.03;1.15;;;9.60;99.90;;;;;;4975028;28;20467;-66
2022/04/15 05:22:42;;;;;;;5.72;1.40;;;9.60;99.90;;;;;;4980845;28;20035;-64
2022/04/15 05:25:08;;;;;;;5.50;1.40;;;9.50;99.90;;;;;;4982092;28;20038;-66
2022/04/15 05:27:34;;;;;;;7.30;1.67;;;9.50;99.90;;;;;;4979994;28;20111;-65
2022/04/15 05:29:59;;;;;;;4.68;1.67;;;9.50;99.90;;;;;;4982090;28;20030;-66
2022/04/15 05:32:25;;;;;;;3.78;1.40;;;9.60;99.90;;;;;;4978457;28;20035;-64
2022/04/15 05:34:51;;;;;;;4.15;1.50;;;9.60;99.90;;;;;;4980716;28;20042;-66
2022/04/15 05:37:16;;;;;;;4.82;1.10;;;9.70;99.90;;;;;;4979380;28;20030;-65
2022/04/15 05:39:42;;;;;;;4.32;1.25;;;9.70;99.90;;;;;;4981226;28;20031;-63
2022/04/15 05:42:08;;;;;;;5.40;1.60;;;9.80;99.90;;;;;;4978878;28;20027;-65
2022/04/15 05:44:33;;;;;;;5.72;1.35;;;9.80;99.90;;;;;;4977637;28;20502;-66
2022/04/15 05:46:59;;;;;;;4.47;1.40;;;9.80;99.90;;;;;;4982395;28;20034;-66
2022/04/15 05:49:25;;;;;;;12.40;1.92;;;9.90;99.90;;;;;;4979878;28;20034;-66
2022/04/15 05:51:50;;;;;;;10.38;1.67;;;9.90;99.90;;;;;;4979092;28;20022;-66
2022/04/15 05:54:16;;;;;;;4.80;1.50;;;9.90;99.90;;;;;;4980762;28;20046;-63
2022/04/15 05:56:42;;;;;;;10.25;1.80;;;9.90;99.90;;;;;;4980852;28;20552;-65
2022/04/15 05:59:08;;;;;;;4.43;1.40;;;9.90;99.90;;;;;;4978849;28;20034;-66
2022/04/15 06:01:34;;;;;;;3.10;1.35;;;10.00;99.90;;;;;;4981414;28;20050;-66
2022/04/15 06:03:59;;;;;;;6.47;1.73;;;10.00;99.90;;;;;;4978368;28;20050;-66
2022/04/15 06:06:25;;;;;;;4.47;1.35;;;10.00;99.90;;;;;;4982287;28;20026;-66
2022/04/15 06:08:51;;;;;;;3.08;1.33;;;10.00;99.90;;;;;;4979029;28;20042;-65
2022/04/15 06:11:16;;;;;;;11.30;2.05;;;10.00;99.90;;;;;;4980093;28;20042;-66
2022/04/15 06:13:47;;;;;;;5.40;1.20;;;10.00;99.90;;;;;;4978606;28;20502;-63
2022/04/15 06:16:17;;;;;;;7.15;1.08;;;10.00;99.90;;;;;;4980212;28;20083;-66
2022/04/15 06:18:42;;;;;;;5.72;1.90;;;10.00;99.90;;;;;;4980163;28;20038;-64
2022/04/15 06:21:08;;;;;;;7.10;1.25;;;10.10;99.90;;;;;;4980116;28;20034;-65
2022/04/15 06:23:34;;;;;;;4.07;1.23;;;10.10;99.90;;;;;;4981243;28;20030;-65
2022/04/15 06:25:59;;;;;;;5.88;1.33;;;10.20;99.90;;;;;;4981902;28;20038;-65
2022/04/15 06:28:25;;;;;;;3.28;1.00;;;10.30;99.90;;;;;;4977199;28;20082;-66
2022/04/15 06:30:51;;;;;;;3.80;0.50;;;10.40;99.90;;;;;;4981097;28;20030;-65
2022/04/15 06:33:20;;;;;;;6.32;0.90;;;10.60;99.90;;;;;;4978026;28;20042;-66
2022/04/15 06:35:46;;;;;;;2.53;0.98;;;11.00;99.90;;;;;;4977396;28;20061;-65
2022/04/15 06:38:12;;;;;;;3.55;0.77;;;11.00;99.90;;;;;;4981230;28;20038;-67
2022/04/15 06:40:40;;;;;;;2.30;0.63;;;11.00;99.90;;;;;;4980772;28;20053;-66
2022/04/15 06:43:06;;;;;;;3.85;0.85;;;10.90;99.90;;;;;;4977765;28;20034;-64
2022/04/15 06:45:31;;;;;;;3.55;0.80;;;10.80;99.90;;;;;;4978849;28;20035;-67
2022/04/15 06:47:57;;;;;;;4.07;0.90;;;10.60;99.90;;;;;;4981451;28;20525;-66
2022/04/15 06:50:22;;;;;;;2.97;0.80;;;10.60;99.90;;;;;;4978799;28;20049;-69
2022/04/15 06:52:48;;;;;;;4.05;0.80;;;10.50;99.90;;;;;;4980451;28;20050;-67
2022/04/15 06:55:14;;;;;;;1.08;0.70;;;10.60;99.90;;;;;;4979939;28;20409;-65
2022/04/15 06:57:39;;;;;;;6.47;2.30;;;10.60;99.90;;;;;;4979941;28;20034;-66
2022/04/15 07:00:08;;;;;;;3.03;0.77;;;10.70;99.90;;;;;;4979286;28;20038;-67
2022/04/15 07:02:34;;;;;;;2.15;0.73;;;10.70;99.90;;;;;;4977604;28;20761;-67
2022/04/15 07:05:00;;;;;;;3.58;0.90;;;10.70;99.90;;;;;;4980950;28;20037;-65
2022/04/15 07:07:25;;;;;;;4.43;0.85;;;10.70;99.90;;;;;;4978555;28;20030;-66
2022/04/15 07:09:51;;;;;;;3.92;0.60;;;10.80;99.90;;;;;;4981068;28;20027;-66
2022/04/15 07:12:17;;;;;;;5.32;0.80;;;10.90;99.90;;;;;;4976020;28;20031;-65
2022/04/15 07:14:43;;;;;;;1.67;0.98;;;10.90;99.90;;;;;;4978967;28;20504;-63
2022/04/15 07:17:09;;;;;;;3.60;1.20;;;11.10;99.90;;;;;;4978552;28;20376;-65
2022/04/15 07:19:34;;;;;;;3.00;1.17;;;11.20;99.90;;;;;;4978994;28;20038;-66
2022/04/15 07:22:00;;;;;;;5.32;0.98;;;11.40;99.90;;;;;;4980747;28;20031;-66
2022/04/15 07:24:27;;;;;;;2.10;0.80;;;11.50;99.90;;;;;;4976554;28;20030;-66
2022/04/15 07:26:52;;;;;;;1.33;0.77;;;11.60;99.90;;;;;;4980904;28;20037;-66
2022/04/15 07:29:20;;;;;;;4.00;1.10;;;11.70;99.90;;;;;;5002839;22;20037;-60
2022/04/15 07:31:46;;;;;;;3.53;0.50;;;11.70;99.90;;;;;;5007897;28;20034;-60
2022/04/15 07:34:11;;;;;;;3.20;0.75;;;11.70;99.90;;;;;;4997745;28;20589;-61
2022/04/15 07:39:05;;;;;;;8.30;1.27;;;11.80;99.90;;;;;;5003137;28;20458;-61
2022/04/15 07:41:30;;;;;;;3.17;1.13;;;11.90;99.90;;;;;;5000272;28;20039;-61
2022/04/15 07:43:56;;;;;;;1.88;0.70;;;12.20;99.90;;;;;;5003272;28;20453;-61
2022/04/15 07:46:22;;;;;;;2.90;0.63;;;12.20;99.90;;;;;;5004527;28;20037;-60
2022/04/15 07:48:47;;;;;;;2.58;0.93;;;12.30;99.90;;;;;;4998315;28;20492;-61
2022/04/15 07:51:13;;;;;;;1.65;0.73;;;12.30;99.90;;;;;;5001854;28;20409;-61
2022/04/15 07:53:38;;;;;;;5.32;0.52;;;12.40;99.90;;;;;;4999988;28;20504;-60
2022/04/15 07:56:04;;;;;;;3.13;0.57;;;12.50;99.90;;;;;;5001774;28;20042;-60
2022/04/15 07:58:30;;;;;;;2.33;1.00;;;12.80;99.90;;;;;;5002759;28;20500;-62
2022/04/15 08:00:59;;;;;;;4.22;1.08;;;12.80;99.90;;;;;;4999010;28;20038;-60
2022/04/15 08:03:26;;;;;;;2.45;0.55;;;12.90;99.90;;;;;;5002956;28;20038;-62
2022/04/15 08:05:51;;;;;;;2.67;0.55;;;13.10;99.90;;;;;;4999554;28;20033;-61
2022/04/15 08:08:17;;;;;;;3.05;0.60;;;13.30;99.90;;;;;;5000773;28;20497;-60
2022/04/15 08:10:42;;;;;;;3.38;0.70;;;13.60;99.90;;;;;;5002700;28;20041;-60
2022/04/15 08:13:08;;;;;;;4.68;1.35;;;13.80;99.90;;;;;;5001007;28;20042;-61
2022/04/15 08:15:34;;;;;;;4.32;1.05;;;13.80;99.90;;;;;;5000496;28;20027;-60
2022/04/15 08:18:00;;;;;;;4.75;0.57;;;14.00;99.90;;;;;;5002521;28;20116;-60
2022/04/15 08:20:25;;;;;;;0.93;0.38;;;14.00;99.90;;;;;;5000192;28;20038;-62
2022/04/15 08:22:51;;;;;;;2.90;0.52;;;14.00;99.90;;;;;;5002701;28;20397;-62
2022/04/15 08:25:17;;;;;;;0.77;0.40;;;13.80;99.90;;;;;;5000441;28;20061;-61
2022/04/15 08:27:42;;;;;;;2.40;0.90;;;13.70;99.90;;;;;;5002413;28;20088;-61
2022/04/15 08:30:08;;;;;;;0.85;0.38;;;13.70;99.90;;;;;;5001462;28;20034;-60
2022/04/15 08:32:34;;;;;;;4.00;0.82;;;13.50;99.90;;;;;;4999999;28;20157;-59
2022/04/15 08:35:04;;;;;;;2.35;0.60;;;13.40;99.90;;;;;;5001800;28;20114;-60
2022/04/15 08:37:30;;;;;;;2.95;0.65;;;13.60;99.90;;;;;;5003676;28;20153;-62
2022/04/15 08:39:56;;;;;;;1.52;0.40;;;13.80;99.90;;;;;;4998973;28;20039;-60
2022/04/15 08:42:22;;;;;;;1.00;0.60;;;13.70;99.90;;;;;;5004012;28;20030;-61
2022/04/15 08:44:51;;;;;;;1.25;0.45;;;13.50;99.90;;;;;;4998490;28;20455;-60
2022/04/15 08:47:17;;;;;;;2.42;0.40;;;13.50;99.90;;;;;;4999107;28;20053;-61
2022/04/15 08:49:43;;;;;;;2.28;0.55;;;13.70;99.90;;;;;;5001087;28;20053;-59
2022/04/15 08:52:10;;;;;;;4.07;0.55;;;13.70;99.90;;;;;;5002908;28;20054;-61
2022/04/15 08:54:36;;;;;;;1.17;0.50;;;13.70;99.90;;;;;;4997801;28;20023;-61
2022/04/15 08:57:02;;;;;;;2.58;0.60;;;13.80;99.90;;;;;;5001802;28;20160;-60
2022/04/15 08:59:27;;;;;;;4.85;0.63;;;13.80;99.90;;;;;;5001716;28;20121;-61
2022/04/15 09:01:53;;;;;;;1.88;0.70;;;14.00;99.90;;;;;;5001844;28;20034;-61
2022/04/15 09:04:19;;;;;;;1.35;0.45;;;14.10;99.90;;;;;;5008457;28;20053;-59
2022/04/15 09:06:45;;;;;;;2.33;0.50;;;14.10;99.90;;;;;;5001542;28;20041;-60
2022/04/15 09:09:12;;;;;;;2.45;0.50;;;14.30;99.90;;;;;;4999397;28;20064;-61
2022/04/15 09:11:40;;;;;;;2.53;0.77;;;14.70;99.90;;;;;;5001444;28;20109;-60
2022/04/15 09:14:13;;;;;;;1.67;0.40;;;14.80;99.90;;;;;;4998728;28;20061;-60
2022/04/15 09:16:44;;;;;;;1.23;0.50;;;14.70;99.90;;;;;;5000685;28;20035;-60
2022/04/15 09:19:10;;;;;;;;;;;14.40;99.90;;;;;;4998922;28;20046;-60
2022/04/15 09:21:37;;;;;;;6.28;0.70;;;14.30;99.90;;;;;;5000510;28;20401;-60
2022/04/15 09:24:03;;;;;;;1.58;0.68;;;14.00;99.90;;;;;;4999397;28;20044;-61
2022/04/15 09:26:28;;;;;;;3.30;0.50;;;13.80;99.90;;;;;;4999470;28;20042;-61
2022/04/15 09:28:54;;;;;;;2.05;0.50;;;13.70;99.90;;;;;;5000889;28;20045;-60
2022/04/15 09:31:23;;;;;;;1.38;0.50;;;13.60;99.90;;;;;;4996895;28;20038;-60
2022/04/15 09:34:00;;;;;;;3.13;0.50;;;13.70;99.90;;;;;;5001282;28;20030;-61
2022/04/15 09:36:26;;;;;;;4.75;0.65;;;13.70;99.90;;;;;;5003138;28;20034;-61
2022/04/15 09:39:16;;;;;;;2.30;0.60;;;13.80;99.90;;;;;;4997570;28;20035;-61
2022/04/15 09:41:52;;;;;;;3.45;0.57;;;13.80;99.90;;;;;;4998838;28;20121;-63
2022/04/15 09:44:19;;;;;;;4.43;0.82;;;14.10;99.90;;;;;;5002455;28;20038;-63
2022/04/15 09:46:45;;;;;;;3.08;0.75;;;14.40;99.90;;;;;;4996493;28;20125;-60
2022/04/15 09:49:12;;;;;;;5.20;0.77;;;14.50;99.90;;;;;;5001822;28;20045;-62
2022/04/15 09:51:45;;;;;;;3.83;0.65;;;14.50;99.90;;;;;;4999249;28;20647;-61
2022/04/15 09:54:24;;;;;;;1.80;0.63;;;14.50;99.90;;;;;;5000457;28;20128;-61
2022/04/15 09:56:52;;;;;;;1.00;0.55;;;14.70;99.90;;;;;;4998266;28;20031;-61
2022/04/15 09:59:21;;;;;;;2.03;1.02;;;14.80;99.90;;;;;;5001111;28;20529;-61
2022/04/15 10:01:49;;;;;;;0.95;0.40;;;14.80;99.90;;;;;;4996558;28;20042;-62
2022/04/15 10:04:14;;;;;;;1.10;0.22;;;14.90;99.90;;;;;;4999328;28;20034;-61
2022/04/15 10:06:42;;;;;;;2.63;0.40;;;14.90;99.90;;;;;;4998386;28;20037;-61
2022/04/15 10:09:13;;;;;;;4.53;0.50;;;15.00;99.90;;;;;;4999887;28;20072;-62
2022/04/15 10:11:42;;;;;;;;;;;15.20;99.90;;;;;;4998558;28;20073;-61
2022/04/15 10:14:09;;;;;;;3.33;0.50;;;15.30;99.90;;;;;;4999320;28;20392;-62
2022/04/15 10:16:38;;;;;;;2.25;0.47;;;15.70;99.90;;;;;;4998132;28;20038;-61
2022/04/15 10:19:04;;;;;;;5.40;0.60;;;15.70;99.90;;;;;;4999529;28;20115;-62
2022/04/15 10:21:35;;;;;;;1.23;0.40;;;15.50;99.90;;;;;;4998276;28;20520;-63
2022/04/15 10:24:01;;;;;;;0.93;0.20;;;15.20;99.90;;;;;;4999040;28;20031;-61
2022/04/15 10:26:32;;;;;;;2.92;0.32;;;15.30;99.90;;;;;;4996971;28;20444;-62
2022/04/15 10:29:02;;;;;;;2.22;0.30;;;15.30;99.90;;;;;;4998430;28;20227;-62
2022/04/15 10:31:43;;;;;;;2.53;0.70;;;15.30;99.90;;;;;;4999331;28;20038;-61
2022/04/15 10:34:11;;;;;;;1.70;0.38;;;15.60;99.90;;;;;;4999805;28;20653;-61
2022/04/15 10:36:38;;;;;;;0.65;0.40;;;15.60;99.90;;;;;;4997651;28;20031;-63
2022/04/15 10:39:03;;;;;;;2.33;0.60;;;15.70;99.90;;;;;;4999553;28;20036;-60
2022/04/15 10:41:41;;;;;;;2.60;0.47;;;15.80;99.90;;;;;;4998278;28;20493;-62
2022/04/15 10:44:11;;;;;;;0.95;0.40;;;15.80;99.90;;;;;;4998637;28;20072;-61
2022/04/15 10:46:37;;;;;;;3.25;0.70;;;15.80;99.90;;;;;;4997217;28;20030;-62
2022/04/15 10:49:21;;;;;;;1.88;0.70;;;15.80;99.90;;;;;;4999169;28;20509;-61
2022/04/15 10:51:50;;;;;;;2.83;0.30;;;15.90;99.90;;;;;;5027799;28;20041;-62
2022/04/15 10:54:36;;;;;;;1.88;0.50;;;15.60;99.90;;;;;;4999328;28;20034;-61
2022/04/15 10:57:17;;;;;;;1.67;0.55;;;15.30;99.90;;;;;;4999790;28;20070;-61
2022/04/15 11:02:40;;;;;;;1.65;0.55;;;14.90;99.90;;;;;;4999944;28;20256;-61
2022/04/15 11:05:08;;;;;;;4.45;0.75;;;15.00;99.90;;;;;;4997466;28;20121;-60
2022/04/15 11:07:56;;;;;;;1.98;0.50;;;14.90;99.90;;;;;;5000164;28;20045;-62
2022/04/15 11:10:42;;;;;;;4.22;0.50;;;14.80;99.90;;;;;;4998555;28;20058;-62
2022/04/15 11:13:27;;;;;;;0.73;0.40;;;15.10;99.90;;;;;;5000414;28;20040;-60
2022/04/15 11:15:57;;;;;;;1.90;0.50;;;15.30;99.90;;;;;;5000555;28;20119;-60
2022/04/15 11:18:23;;;;;;;0.90;0.50;;;15.60;99.90;;;;;;5002675;28;20050;-60
2022/04/15 11:20:49;;;;;;;3.25;0.60;;;15.60;99.90;;;;;;5001500;28;20038;-61
2022/04/15 11:23:16;;;;;;;3.42;0.52;;;15.60;99.90;;;;;;5002851;28;20042;-64
2022/04/15 11:25:42;;;;;;;2.35;0.50;;;15.40;99.90;;;;;;5003054;28;20034;-61
2022/04/15 11:28:09;;;;;;;0.57;0.30;;;15.10;99.90;;;;;;5001953;28;20678;-62
2022/04/15 11:30:34;;;;;;;2.28;0.40;;;15.10;99.90;;;;;;5003224;28;20521;-63
2022/04/15 11:33:07;;;;;;;1.95;0.63;;;15.00;99.90;;;;;;5000522;28;20038;-60
2022/04/15 11:35:35;;;;;;;2.00;0.70;;;15.10;99.90;;;;;;5002758;28;20030;-61
2022/04/15 11:38:09;;;;;;;3.80;0.80;;;15.20;99.90;;;;;;5000644;28;20516;-61
2022/04/15 11:40:36;;;;;;;6.18;0.73;;;15.10;99.90;;;;;;5003082;28;20041;-61
2022/04/15 11:43:06;;;;;;;1.33;0.50;;;15.20;99.90;;;;;;5002162;28;20083;-61
2022/04/15 11:45:40;;;;;;;4.05;0.70;;;15.20;99.90;;;;;;5001229;28;20045;-60
2022/04/15 11:48:19;;;;;;;3.10;0.85;;;15.20;99.90;;;;;;5003037;28;20099;-61
2022/04/15 11:50:46;;;;;;;1.08;0.43;;;15.10;99.90;;;;;;5000687;28;20540;-62
2022/04/15 11:53:13;;;;;;;3.42;0.80;;;15.10;99.90;;;;;;5002279;28;20087;-60
2022/04/15 11:55:50;;;;;;;2.42;0.82;;;15.20;99.90;;;;;;5000515;28;20050;-61
2022/04/15 11:58:17;;;;;;;2.40;0.52;;;15.30;99.90;;;;;;5000981;28;20042;-62
2022/04/15 12:00:49;;;;;;;1.77;0.77;;;15.20;99.90;;;;;;5001642;28;20034;-61
2022/04/15 12:03:15;;;;;;;2.78;0.98;;;15.10;99.90;;;;;;5000117;28;20049;-62
2022/04/15 12:05:40;;;;;;;6.38;0.93;;;15.00;99.90;;;;;;5003373;28;20026;-63
2022/04/15 12:08:08;;;;;;;3.97;1.13;;;15.20;99.90;;;;;;4999615;28;20474;-60
2022/04/15 12:10:38;;;;;;;1.98;0.85;;;15.20;99.90;;;;;;5002626;28;20038;-62
2022/04/15 12:13:05;;;;;;;2.30;1.00;;;15.10;99.90;;;;;;4999041;28;20389;-61
2022/04/15 12:15:32;;;;;;;5.90;0.98;;;15.10;99.90;;;;;;5001242;28;20284;-62
2022/04/15 12:17:58;;;;;;;3.35;0.98;;;15.00;99.90;;;;;;5000312;28;20065;-62
2022/04/15 12:20:24;;;;;;;3.08;1.20;;;15.00;99.90;;;;;;5001807;28;20081;-61
2022/04/15 12:22:49;;;;;;;1.73;0.80;;;15.00;99.90;;;;;;4999592;28;20030;-62
2022/04/15 12:25:19;;;;;;;6.30;1.30;;;14.90;99.90;;;;;;5001003;28;20125;-61
2022/04/15 12:27:46;;;;;;;1.90;1.00;;;14.80;99.90;;;;;;5000328;28;20485;-61
2022/04/15 12:30:14;;;;;;;3.35;1.60;;;14.90;99.90;;;;;;4999538;28;20518;-61
2022/04/15 12:32:39;;;;;;;6.80;1.30;;;14.80;99.90;;;;;;5001319;28;20405;-61
2022/04/15 12:35:10;;;;;;;3.28;1.23;;;14.80;99.90;;;;;;4999652;28;20030;-61
2022/04/15 12:37:42;;;;;;;5.03;0.95;;;14.80;99.90;;;;;;5000346;28;20462;-61
2022/04/15 12:40:15;;;;;;;3.40;0.80;;;14.80;99.90;;;;;;5001717;28;20034;-61
2022/04/15 12:42:45;;;;;;;4.15;1.30;;;14.80;99.90;;;;;;5002958;28;20038;-62
2022/04/15 12:45:16;;;;;;;3.33;1.30;;;14.80;99.90;;;;;;4999288;28;20038;-62
2022/04/15 12:47:45;;;;;;;3.00;1.00;;;15.00;99.90;;;;;;5001305;28;20037;-61
2022/04/15 12:50:25;;;;;;;8.75;1.25;;;15.10;99.90;;;;;;4999867;28;20066;-60
2022/04/15 12:52:54;;;;;;;4.45;1.25;;;15.20;99.90;;;;;;4998156;28;20038;-61
2022/04/15 12:55:32;;;;;;;4.37;1.20;;;15.30;99.90;;;;;;5001172;28;20053;-61
2022/04/15 12:58:00;;;;;;;3.00;1.45;;;15.20;99.90;;;;;;4999793;28;20278;-61
2022/04/15 13:00:27;;;;;;;3.03;1.40;;;15.10;99.90;;;;;;5000348;28;20391;-60